sensor_id;sensor_type;location;lat;lon;timestamp;P1;durP1;ratioP1;P2;durP2;ratioP2
64674;SDS011;51090;51.512;11.332;2023-04-24T00:31:11;2.25;;;1.38;;
64674;SDS011;51090;51.512;11.332;2023-04-24T00:33:37;2.67;;;1.60;;
64674;SDS011;51090;51.512;11.332;2023-04-24T00:36:03;3.38;;;1.55;;
64674;SDS011;51090;51.512;11.332;2023-04-24T00:38:29;3.35;;;1.33;;
64674;SDS011;51090;51.512;11.332;2023-04-24T00:40:54;7.75;;;1.70;;
64674;SDS011;51090;51.512;11.332;2023-04-24T00:43:20;3.47;;;1.40;;
64674;SDS011;51090;51.512;11.332;2023-04-24T00:45:46;4.45;;;1.50;;
64674;SDS011;51090;51.512;11.332;2023-04-24T00:48:12;5.47;;;1.73;;
64674;SDS011;51090;51.512;11.332;2023-04-24T00:50:38;4.15;;;1.58;;
64674;SDS011;51090;51.512;11.332;2023-04-24T00:53:04;2.65;;;1.30;;
64674;SDS011;51090;51.512;11.332;2023-04-24T00:55:30;4.25;;;1.80;;
64674;SDS011;51090;51.512;11.332;2023-04-24T00:57:56;4.07;;;1.30;;
64674;SDS011;51090;51.512;11.332;2023-04-24T01:00:22;2.60;;;1.55;;
64674;SDS011;51090;51.512;11.332;2023-04-24T01:02:48;3.72;;;1.27;;
64674;SDS011;51090;51.512;11.332;2023-04-24T01:05:16;3.28;;;1.00;;
64674;SDS011;51090;51.512;11.332;2023-04-24T01:07:44;2.72;;;1.00;;
64674;SDS011;51090;51.512;11.332;2023-04-24T01:10:13;1.40;;;0.85;;
64674;SDS011;51090;51.512;11.332;2023-04-24T01:12:40;1.73;;;0.98;;
64674;SDS011;51090;51.512;11.332;2023-04-24T01:15:06;3.58;;;1.00;;
64674;SDS011;51090;51.512;11.332;2023-04-24T01:17:33;3.20;;;0.75;;
64674;SDS011;51090;51.512;11.332;2023-04-24T01:19:59;1.55;;;1.00;;
64674;SDS011;51090;51.512;11.332;2023-04-24T01:22:26;2.83;;;1.20;;
64674;SDS011;51090;51.512;11.332;2023-04-24T01:24:52;2.47;;;1.00;;
64674;SDS011;51090;51.512;11.332;2023-04-24T01:27:18;1.15;;;0.82;;
64674;SDS011;51090;51.512;11.332;2023-04-24T01:29:44;2.55;;;0.90;;
64674;SDS011;51090;51.512;11.332;2023-04-24T01:32:12;3.75;;;0.90;;
64674;SDS011;51090;51.512;11.332;2023-04-24T01:34:39;3.50;;;1.00;;
64674;SDS011;51090;51.512;11.332;2023-04-24T01:37:05;2.75;;;1.10;;
64674;SDS011;51090;51.512;11.332;2023-04-24T01:39:31;2.85;;;0.80;;
64674;SDS011;51090;51.512;11.332;2023-04-24T01:41:58;1.52;;;0.98;;
64674;SDS011;51090;51.512;11.332;2023-04-24T01:44:26;2.15;;;0.93;;
64674;SDS011;51090;51.512;11.332;2023-04-24T01:46:53;3.00;;;0.90;;
64674;SDS011;51090;51.512;11.332;2023-04-24T01:49:20;2.00;;;1.02;;
64674;SDS011;51090;51.512;11.332;2023-04-24T01:51:46;2.90;;;1.00;;
64674;SDS011;51090;51.512;11.332;2023-04-24T01:54:12;2.38;;;0.80;;
64674;SDS011;51090;51.512;11.332;2023-04-24T01:56:41;1.95;;;0.90;;
64674;SDS011;51090;51.512;11.332;2023-04-24T01:59:09;7.03;;;0.85;;
64674;SDS011;51090;51.512;11.332;2023-04-24T02:01:36;1.98;;;1.05;;
64674;SDS011;51090;51.512;11.332;2023-04-24T02:04:03;2.17;;;0.80;;
64674;SDS011;51090;51.512;11.332;2023-04-24T02:06:31;1.20;;;0.73;;
64674;SDS011;51090;51.512;11.332;2023-04-24T02:08:59;1.60;;;1.00;;
64674;SDS011;51090;51.512;11.332;2023-04-24T02:11:26;2.03;;;0.80;;
64674;SDS011;51090;51.512;11.332;2023-04-24T02:13:52;1.50;;;0.80;;
64674;SDS011;51090;51.512;11.332;2023-04-24T02:16:18;1.58;;;0.80;;
64674;SDS011;51090;51.512;11.332;2023-04-24T02:18:43;4.00;;;0.95;;
64674;SDS011;51090;51.512;11.332;2023-04-24T02:21:09;2.70;;;0.90;;
64674;SDS011;51090;51.512;11.332;2023-04-24T02:23:35;1.95;;;0.85;;
64674;SDS011;51090;51.512;11.332;2023-04-24T02:26:01;1.63;;;0.70;;
64674;SDS011;51090;51.512;11.332;2023-04-24T02:28:27;1.77;;;0.90;;
64674;SDS011;51090;51.512;11.332;2023-04-24T02:30:53;2.03;;;0.80;;
64674;SDS011;51090;51.512;11.332;2023-04-24T02:33:19;1.83;;;0.90;;
64674;SDS011;51090;51.512;11.332;2023-04-24T02:35:45;1.92;;;1.08;;
64674;SDS011;51090;51.512;11.332;2023-04-24T02:38:10;1.65;;;0.80;;
64674;SDS011;51090;51.512;11.332;2023-04-24T02:40:36;1.92;;;0.90;;
64674;SDS011;51090;51.512;11.332;2023-04-24T02:43:02;1.52;;;1.00;;
64674;SDS011;51090;51.512;11.332;2023-04-24T02:45:27;2.00;;;1.02;;
64674;SDS011;51090;51.512;11.332;2023-04-24T02:47:53;2.88;;;1.00;;
64674;SDS011;51090;51.512;11.332;2023-04-24T02:50:19;2.13;;;1.00;;
64674;SDS011;51090;51.512;11.332;2023-04-24T02:52:45;2.75;;;1.10;;
64674;SDS011;51090;51.512;11.332;2023-04-24T02:55:10;1.23;;;0.65;;
64674;SDS011;51090;51.512;11.332;2023-04-24T02:57:36;1.98;;;0.90;;
64674;SDS011;51090;51.512;11.332;2023-04-24T03:00:02;1.58;;;0.75;;
64674;SDS011;51090;51.512;11.332;2023-04-24T03:02:31;1.63;;;0.95;;
64674;SDS011;51090;51.512;11.332;2023-04-24T03:04:57;3.17;;;1.25;;
64674;SDS011;51090;51.512;11.332;2023-04-24T03:07:23;1.65;;;0.80;;
64674;SDS011;51090;51.512;11.332;2023-04-24T03:09:49;2.33;;;1.10;;
64674;SDS011;51090;51.512;11.332;2023-04-24T03:12:15;1.23;;;0.70;;
64674;SDS011;51090;51.512;11.332;2023-04-24T03:14:42;3.60;;;0.90;;
64674;SDS011;51090;51.512;11.332;2023-04-24T03:17:08;0.90;;;0.52;;
64674;SDS011;51090;51.512;11.332;2023-04-24T03:19:34;1.58;;;0.85;;
64674;SDS011;51090;51.512;11.332;2023-04-24T03:22:01;1.55;;;0.70;;
64674;SDS011;51090;51.512;11.332;2023-04-24T03:24:27;3.08;;;0.93;;
64674;SDS011;51090;51.512;11.332;2023-04-24T03:26:53;7.30;;;1.90;;
64674;SDS011;51090;51.512;11.332;2023-04-24T03:29:21;2.22;;;1.10;;
64674;SDS011;51090;51.512;11.332;2023-04-24T03:31:47;1.83;;;0.93;;
64674;SDS011;51090;51.512;11.332;2023-04-24T03:34:13;2.85;;;0.90;;
64674;SDS011;51090;51.512;11.332;2023-04-24T03:36:39;2.28;;;0.98;;
64674;SDS011;51090;51.512;11.332;2023-04-24T03:39:04;2.25;;;1.00;;
64674;SDS011;51090;51.512;11.332;2023-04-24T03:41:30;2.00;;;0.80;;
64674;SDS011;51090;51.512;11.332;2023-04-24T03:43:56;1.55;;;0.88;;
64674;SDS011;51090;51.512;11.332;2023-04-24T03:46:21;1.52;;;0.68;;
64674;SDS011;51090;51.512;11.332;2023-04-24T03:48:47;3.95;;;1.00;;
64674;SDS011;51090;51.512;11.332;2023-04-24T03:51:13;2.40;;;0.90;;
64674;SDS011;51090;51.512;11.332;2023-04-24T03:53:39;2.78;;;1.00;;
64674;SDS011;51090;51.512;11.332;2023-04-24T03:56:05;1.63;;;0.95;;
64674;SDS011;51090;51.512;11.332;2023-04-24T03:58:30;1.75;;;0.70;;
64674;SDS011;51090;51.512;11.332;2023-04-24T04:00:56;2.58;;;0.77;;
64674;SDS011;51090;51.512;11.332;2023-04-24T04:03:26;1.02;;;0.70;;
64674;SDS011;51090;51.512;11.332;2023-04-24T04:05:51;2.38;;;0.80;;
64674;SDS011;51090;51.512;11.332;2023-04-24T04:08:18;1.55;;;0.90;;
64674;SDS011;51090;51.512;11.332;2023-04-24T04:10:43;1.05;;;0.80;;
64674;SDS011;51090;51.512;11.332;2023-04-24T04:13:09;1.40;;;0.85;;
64674;SDS011;51090;51.512;11.332;2023-04-24T04:15:35;7.38;;;0.90;;
64674;SDS011;51090;51.512;11.332;2023-04-24T04:18:00;1.08;;;0.70;;
64674;SDS011;51090;51.512;11.332;2023-04-24T04:20:26;12.70;;;4.97;;
64674;SDS011;51090;51.512;11.332;2023-04-24T04:22:52;2.63;;;1.70;;
64674;SDS011;51090;51.512;11.332;2023-04-24T04:25:18;1.92;;;1.25;;
64674;SDS011;51090;51.512;11.332;2023-04-24T04:27:44;1.40;;;0.93;;
64674;SDS011;51090;51.512;11.332;2023-04-24T04:30:12;1.55;;;0.73;;
64674;SDS011;51090;51.512;11.332;2023-04-24T04:35:57;3.70;;;0.90;;
64674;SDS011;51090;51.512;11.332;2023-04-24T04:38:23;1.95;;;1.25;;
64674;SDS011;51090;51.512;11.332;2023-04-24T04:40:49;1.48;;;0.88;;
64674;SDS011;51090;51.512;11.332;2023-04-24T04:43:15;1.98;;;1.00;;
64674;SDS011;51090;51.512;11.332;2023-04-24T04:45:41;2.25;;;0.85;;
64674;SDS011;51090;51.512;11.332;2023-04-24T04:48:08;2.05;;;1.20;;
64674;SDS011;51090;51.512;11.332;2023-04-24T04:50:37;2.38;;;1.30;;
64674;SDS011;51090;51.512;11.332;2023-04-24T04:53:03;2.78;;;1.10;;
64674;SDS011;51090;51.512;11.332;2023-04-24T04:55:29;2.58;;;1.10;;
64674;SDS011;51090;51.512;11.332;2023-04-24T04:57:55;1.35;;;1.02;;
64674;SDS011;51090;51.512;11.332;2023-04-24T05:00:21;2.00;;;0.90;;
64674;SDS011;51090;51.512;11.332;2023-04-24T05:02:49;1.42;;;0.90;;
64674;SDS011;51090;51.512;11.332;2023-04-24T05:05:14;3.03;;;1.10;;
64674;SDS011;51090;51.512;11.332;2023-04-24T05:07:42;2.63;;;1.10;;
64674;SDS011;51090;51.512;11.332;2023-04-24T05:10:07;1.20;;;0.90;;
64674;SDS011;51090;51.512;11.332;2023-04-24T05:12:34;3.13;;;1.00;;
64674;SDS011;51090;51.512;11.332;2023-04-24T05:15:00;2.83;;;1.10;;
64674;SDS011;51090;51.512;11.332;2023-04-24T05:17:25;2.58;;;1.10;;
64674;SDS011;51090;51.512;11.332;2023-04-24T05:19:51;1.33;;;0.80;;
64674;SDS011;51090;51.512;11.332;2023-04-24T05:22:17;2.75;;;0.90;;
64674;SDS011;51090;51.512;11.332;2023-04-24T05:24:45;0.88;;;0.70;;
64674;SDS011;51090;51.512;11.332;2023-04-24T05:27:11;4.43;;;1.10;;
64674;SDS011;51090;51.512;11.332;2023-04-24T05:29:37;2.83;;;1.05;;
64674;SDS011;51090;51.512;11.332;2023-04-24T05:32:03;1.20;;;0.93;;
64674;SDS011;51090;51.512;11.332;2023-04-24T05:34:29;1.50;;;0.88;;
64674;SDS011;51090;51.512;11.332;2023-04-24T05:36:55;2.00;;;0.77;;
64674;SDS011;51090;51.512;11.332;2023-04-24T05:39:20;2.22;;;0.70;;
64674;SDS011;51090;51.512;11.332;2023-04-24T05:41:46;1.98;;;0.80;;
64674;SDS011;51090;51.512;11.332;2023-04-24T05:44:12;2.72;;;0.90;;
64674;SDS011;51090;51.512;11.332;2023-04-24T05:46:38;1.98;;;0.95;;
64674;SDS011;51090;51.512;11.332;2023-04-24T05:49:03;2.50;;;0.90;;
64674;SDS011;51090;51.512;11.332;2023-04-24T05:51:29;1.13;;;0.82;;
64674;SDS011;51090;51.512;11.332;2023-04-24T05:53:56;2.42;;;1.02;;
64674;SDS011;51090;51.512;11.332;2023-04-24T05:56:22;1.40;;;0.70;;
64674;SDS011;51090;51.512;11.332;2023-04-24T05:58:48;1.25;;;0.90;;
64674;SDS011;51090;51.512;11.332;2023-04-24T06:01:14;2.72;;;1.00;;
64674;SDS011;51090;51.512;11.332;2023-04-24T06:03:40;4.13;;;1.13;;
64674;SDS011;51090;51.512;11.332;2023-04-24T06:06:06;3.40;;;1.10;;
64674;SDS011;51090;51.512;11.332;2023-04-24T06:08:33;3.03;;;1.10;;
64674;SDS011;51090;51.512;11.332;2023-04-24T06:11:00;2.55;;;1.20;;
64674;SDS011;51090;51.512;11.332;2023-04-24T06:13:26;5.95;;;1.73;;
64674;SDS011;51090;51.512;11.332;2023-04-24T06:15:52;2.28;;;1.60;;
64674;SDS011;51090;51.512;11.332;2023-04-24T06:18:18;2.25;;;1.27;;
64674;SDS011;51090;51.512;11.332;2023-04-24T06:20:44;1.73;;;1.20;;
64674;SDS011;51090;51.512;11.332;2023-04-24T06:23:11;1.75;;;1.13;;
64674;SDS011;51090;51.512;11.332;2023-04-24T06:25:37;3.67;;;1.27;;
64674;SDS011;51090;51.512;11.332;2023-04-24T06:28:03;1.95;;;1.23;;
64674;SDS011;51090;51.512;11.332;2023-04-24T06:30:29;3.50;;;1.50;;
64674;SDS011;51090;51.512;11.332;2023-04-24T06:32:55;3.90;;;1.23;;
64674;SDS011;51090;51.512;11.332;2023-04-24T06:35:21;2.10;;;1.00;;
64674;SDS011;51090;51.512;11.332;2023-04-24T06:37:47;2.90;;;1.00;;
64674;SDS011;51090;51.512;11.332;2023-04-24T06:40:13;3.58;;;1.15;;
64674;SDS011;51090;51.512;11.332;2023-04-24T06:42:39;1.75;;;1.10;;
64674;SDS011;51090;51.512;11.332;2023-04-24T06:55:26;3.00;;;1.10;;
64674;SDS011;51090;51.512;11.332;2023-04-24T06:57:52;3.42;;;1.20;;
64674;SDS011;51090;51.512;11.332;2023-04-24T07:00:18;1.70;;;1.00;;
64674;SDS011;51090;51.512;11.332;2023-04-24T07:02:44;2.15;;;1.08;;
64674;SDS011;51090;51.512;11.332;2023-04-24T07:05:10;2.10;;;1.27;;
64674;SDS011;51090;51.512;11.332;2023-04-24T07:07:36;2.15;;;0.82;;
64674;SDS011;51090;51.512;11.332;2023-04-24T07:10:03;4.55;;;1.10;;
64674;SDS011;51090;51.512;11.332;2023-04-24T07:12:30;2.28;;;1.10;;
64674;SDS011;51090;51.512;11.332;2023-04-24T07:14:57;3.72;;;0.90;;
64674;SDS011;51090;51.512;11.332;2023-04-24T07:17:22;1.48;;;1.08;;
64674;SDS011;51090;51.512;11.332;2023-04-24T07:19:48;1.65;;;0.90;;
64674;SDS011;51090;51.512;11.332;2023-04-24T07:22:14;3.10;;;0.88;;
64674;SDS011;51090;51.512;11.332;2023-04-24T07:24:42;2.85;;;1.10;;
64674;SDS011;51090;51.512;11.332;2023-04-24T07:27:09;1.70;;;0.90;;
64674;SDS011;51090;51.512;11.332;2023-04-24T07:29:35;1.38;;;0.75;;
64674;SDS011;51090;51.512;11.332;2023-04-24T07:32:01;2.92;;;1.48;;
64674;SDS011;51090;51.512;11.332;2023-04-24T07:34:26;4.38;;;0.90;;
64674;SDS011;51090;51.512;11.332;2023-04-24T07:36:52;1.40;;;0.75;;
64674;SDS011;51090;51.512;11.332;2023-04-24T07:39:19;4.03;;;0.77;;
64674;SDS011;51090;51.512;11.332;2023-04-24T07:41:46;2.15;;;0.70;;
64674;SDS011;51090;51.512;11.332;2023-04-24T07:44:12;1.42;;;0.70;;
64674;SDS011;51090;51.512;11.332;2023-04-24T07:46:37;2.65;;;0.90;;
64674;SDS011;51090;51.512;11.332;2023-04-24T07:49:03;1.52;;;0.60;;
64674;SDS011;51090;51.512;11.332;2023-04-24T07:51:30;1.55;;;0.80;;
64674;SDS011;51090;51.512;11.332;2023-04-24T07:53:57;0.82;;;0.50;;
64674;SDS011;51090;51.512;11.332;2023-04-24T07:56:23;1.48;;;0.90;;
64674;SDS011;51090;51.512;11.332;2023-04-24T07:58:49;3.13;;;0.73;;
64674;SDS011;51090;51.512;11.332;2023-04-24T08:01:15;1.13;;;0.65;;
64674;SDS011;51090;51.512;11.332;2023-04-24T08:03:41;1.25;;;0.70;;
64674;SDS011;51090;51.512;11.332;2023-04-24T08:06:06;2.10;;;0.80;;
64674;SDS011;51090;51.512;11.332;2023-04-24T08:08:32;3.45;;;0.80;;
64674;SDS011;51090;51.512;11.332;2023-04-24T08:10:58;0.90;;;0.63;;
64674;SDS011;51090;51.512;11.332;2023-04-24T08:13:24;1.42;;;0.70;;
64674;SDS011;51090;51.512;11.332;2023-04-24T08:15:50;2.08;;;0.80;;
64674;SDS011;51090;51.512;11.332;2023-04-24T08:18:17;1.23;;;0.60;;
64674;SDS011;51090;51.512;11.332;2023-04-24T08:20:42;1.17;;;0.73;;
64674;SDS011;51090;51.512;11.332;2023-04-24T08:23:10;1.33;;;0.50;;
64674;SDS011;51090;51.512;11.332;2023-04-24T08:25:35;1.45;;;0.70;;
64674;SDS011;51090;51.512;11.332;2023-04-24T08:28:03;1.90;;;0.85;;
64674;SDS011;51090;51.512;11.332;2023-04-24T08:30:31;1.52;;;0.40;;
64674;SDS011;51090;51.512;11.332;2023-04-24T08:32:56;2.70;;;0.70;;
64674;SDS011;51090;51.512;11.332;2023-04-24T08:35:22;3.85;;;0.73;;
64674;SDS011;51090;51.512;11.332;2023-04-24T08:37:48;1.38;;;0.70;;
64674;SDS011;51090;51.512;11.332;2023-04-24T08:40:15;2.97;;;0.63;;
64674;SDS011;51090;51.512;11.332;2023-04-24T08:42:42;3.42;;;0.80;;
64674;SDS011;51090;51.512;11.332;2023-04-24T08:45:09;2.30;;;0.70;;
64674;SDS011;51090;51.512;11.332;2023-04-24T08:47:37;0.80;;;0.57;;
64674;SDS011;51090;51.512;11.332;2023-04-24T08:50:05;1.92;;;0.43;;
64674;SDS011;51090;51.512;11.332;2023-04-24T08:52:33;1.42;;;0.75;;
64674;SDS011;51090;51.512;11.332;2023-04-24T08:55:02;1.25;;;0.63;;
64674;SDS011;51090;51.512;11.332;2023-04-24T08:57:28;0.88;;;0.45;;
64674;SDS011;51090;51.512;11.332;2023-04-24T08:59:56;1.50;;;0.50;;
64674;SDS011;51090;51.512;11.332;2023-04-24T09:02:23;2.60;;;0.73;;
64674;SDS011;51090;51.512;11.332;2023-04-24T09:04:50;1.80;;;0.70;;
64674;SDS011;51090;51.512;11.332;2023-04-24T09:07:17;1.35;;;0.63;;
64674;SDS011;51090;51.512;11.332;2023-04-24T09:09:44;0.60;;;0.50;;
64674;SDS011;51090;51.512;11.332;2023-04-24T09:12:10;1.17;;;0.52;;
64674;SDS011;51090;51.512;11.332;2023-04-24T09:14:37;1.30;;;0.40;;
64674;SDS011;51090;51.512;11.332;2023-04-24T09:17:07;2.83;;;0.90;;
64674;SDS011;51090;51.512;11.332;2023-04-24T09:19:33;2.35;;;0.70;;
64674;SDS011;51090;51.512;11.332;2023-04-24T09:21:58;2.45;;;0.90;;
64674;SDS011;51090;51.512;11.332;2023-04-24T09:24:24;3.22;;;0.90;;
64674;SDS011;51090;51.512;11.332;2023-04-24T09:26:57;1.23;;;0.65;;
64674;SDS011;51090;51.512;11.332;2023-04-24T09:29:24;5.18;;;1.65;;
64674;SDS011;51090;51.512;11.332;2023-04-24T09:31:50;6.43;;;2.40;;
64674;SDS011;51090;51.512;11.332;2023-04-24T09:34:20;3.42;;;1.73;;
64674;SDS011;51090;51.512;11.332;2023-04-24T09:39:15;3.20;;;1.30;;
64674;SDS011;51090;51.512;11.332;2023-04-24T09:44:17;1.77;;;1.00;;
64674;SDS011;51090;51.512;11.332;2023-04-24T09:49:21;1.10;;;0.80;;
64674;SDS011;51090;51.512;11.332;2023-04-24T09:51:52;8.93;;;3.60;;
64674;SDS011;51090;51.512;11.332;2023-04-24T09:54:35;3.97;;;1.70;;
64674;SDS011;51090;51.512;11.332;2023-04-24T09:57:04;1.00;;;0.90;;
64674;SDS011;51090;51.512;11.332;2023-04-24T09:59:32;0.88;;;0.50;;
64674;SDS011;51090;51.512;11.332;2023-04-24T10:01:58;2.20;;;1.10;;
64674;SDS011;51090;51.512;11.332;2023-04-24T10:04:26;6.05;;;3.60;;
64674;SDS011;51090;51.512;11.332;2023-04-24T10:06:54;12.68;;;5.85;;
64674;SDS011;51090;51.512;11.332;2023-04-24T10:09:22;5.03;;;2.00;;
64674;SDS011;51090;51.512;11.332;2023-04-24T10:11:51;6.00;;;2.55;;
64674;SDS011;51090;51.512;11.332;2023-04-24T10:14:20;1.58;;;1.10;;
64674;SDS011;51090;51.512;11.332;2023-04-24T10:16:51;3.58;;;0.80;;
64674;SDS011;51090;51.512;11.332;2023-04-24T10:19:20;2.00;;;0.80;;
64674;SDS011;51090;51.512;11.332;2023-04-24T10:21:45;3.00;;;1.25;;
64674;SDS011;51090;51.512;11.332;2023-04-24T10:24:18;2.53;;;0.90;;
64674;SDS011;51090;51.512;11.332;2023-04-24T10:26:47;2.35;;;0.85;;
64674;SDS011;51090;51.512;11.332;2023-04-24T10:29:14;0.68;;;0.50;;
64674;SDS011;51090;51.512;11.332;2023-04-24T10:31:44;1.77;;;0.90;;
64674;SDS011;51090;51.512;11.332;2023-04-24T10:34:13;1.02;;;0.63;;
64674;SDS011;51090;51.512;11.332;2023-04-24T10:36:43;1.50;;;0.95;;
64674;SDS011;51090;51.512;11.332;2023-04-24T10:39:16;1.35;;;0.80;;
64674;SDS011;51090;51.512;11.332;2023-04-24T10:41:44;1.00;;;0.75;;
64674;SDS011;51090;51.512;11.332;2023-04-24T10:44:14;2.03;;;0.90;;
64674;SDS011;51090;51.512;11.332;2023-04-24T10:46:44;3.65;;;1.10;;
64674;SDS011;51090;51.512;11.332;2023-04-24T10:49:17;3.90;;;0.93;;
64674;SDS011;51090;51.512;11.332;2023-04-24T10:51:59;1.88;;;0.90;;
64674;SDS011;51090;51.512;11.332;2023-04-24T10:59:51;1.52;;;1.00;;
64674;SDS011;51090;51.512;11.332;2023-04-24T11:02:38;3.53;;;1.00;;
64674;SDS011;51090;51.512;11.332;2023-04-24T11:05:05;2.05;;;1.10;;
64674;SDS011;51090;51.512;11.332;2023-04-24T11:10:45;1.30;;;0.90;;
64674;SDS011;51090;51.512;11.332;2023-04-24T11:13:15;2.10;;;0.80;;
64674;SDS011;51090;51.512;11.332;2023-04-24T11:15:42;2.25;;;1.10;;
64674;SDS011;51090;51.512;11.332;2023-04-24T11:18:14;1.45;;;0.80;;
64674;SDS011;51090;51.512;11.332;2023-04-24T11:20:44;2.42;;;1.00;;
64674;SDS011;51090;51.512;11.332;2023-04-24T11:23:12;1.88;;;1.20;;
64674;SDS011;51090;51.512;11.332;2023-04-24T11:25:39;1.40;;;1.00;;
64674;SDS011;51090;51.512;11.332;2023-04-24T11:28:06;2.10;;;1.00;;
64674;SDS011;51090;51.512;11.332;2023-04-24T11:30:32;1.85;;;0.95;;
64674;SDS011;51090;51.512;11.332;2023-04-24T11:33:04;1.20;;;0.90;;
64674;SDS011;51090;51.512;11.332;2023-04-24T11:35:30;1.27;;;0.80;;
64674;SDS011;51090;51.512;11.332;2023-04-24T11:38:03;2.45;;;0.82;;
64674;SDS011;51090;51.512;11.332;2023-04-24T11:40:30;2.00;;;1.10;;
64674;SDS011;51090;51.512;11.332;2023-04-24T11:42:56;1.52;;;1.05;;
64674;SDS011;51090;51.512;11.332;2023-04-24T11:45:25;2.80;;;0.90;;
64674;SDS011;51090;51.512;11.332;2023-04-24T11:47:53;1.27;;;1.00;;
64674;SDS011;51090;51.512;11.332;2023-04-24T11:50:21;1.88;;;1.10;;
64674;SDS011;51090;51.512;11.332;2023-04-24T11:52:51;1.63;;;0.88;;
64674;SDS011;51090;51.512;11.332;2023-04-24T11:57:47;2.42;;;0.77;;
64674;SDS011;51090;51.512;11.332;2023-04-24T12:00:16;1.40;;;0.88;;
64674;SDS011;51090;51.512;11.332;2023-04-24T12:02:47;1.20;;;0.90;;
64674;SDS011;51090;51.512;11.332;2023-04-24T12:05:25;2.00;;;0.90;;
64674;SDS011;51090;51.512;11.332;2023-04-24T12:07:52;1.67;;;0.90;;
64674;SDS011;51090;51.512;11.332;2023-04-24T12:10:22;1.80;;;1.10;;
64674;SDS011;51090;51.512;11.332;2023-04-24T12:12:51;1.60;;;1.00;;
64674;SDS011;51090;51.512;11.332;2023-04-24T12:15:17;2.70;;;1.10;;
64674;SDS011;51090;51.512;11.332;2023-04-24T12:17:45;2.65;;;1.13;;
64674;SDS011;51090;51.512;11.332;2023-04-24T12:20:11;1.83;;;0.90;;
64674;SDS011;51090;51.512;11.332;2023-04-24T12:22:48;1.73;;;0.93;;
64674;SDS011;51090;51.512;11.332;2023-04-24T12:25:16;1.58;;;0.90;;
64674;SDS011;51090;51.512;11.332;2023-04-24T12:27:44;1.77;;;1.02;;
64674;SDS011;51090;51.512;11.332;2023-04-24T12:30:14;1.63;;;1.00;;
64674;SDS011;51090;51.512;11.332;2023-04-24T12:32:59;2.97;;;1.23;;
64674;SDS011;51090;51.512;11.332;2023-04-24T12:35:27;2.03;;;1.00;;
64674;SDS011;51090;51.512;11.332;2023-04-24T12:38:04;2.63;;;1.15;;
64674;SDS011;51090;51.512;11.332;2023-04-24T12:40:38;1.85;;;1.10;;
64674;SDS011;51090;51.512;11.332;2023-04-24T12:43:14;1.83;;;1.00;;
64674;SDS011;51090;51.512;11.332;2023-04-24T12:45:41;2.58;;;1.10;;
64674;SDS011;51090;51.512;11.332;2023-04-24T12:48:07;2.22;;;1.10;;
64674;SDS011;51090;51.512;11.332;2023-04-24T12:50:33;1.25;;;0.90;;
64674;SDS011;51090;51.512;11.332;2023-04-24T12:52:58;3.50;;;1.15;;
64674;SDS011;51090;51.512;11.332;2023-04-24T16:07:11;0.52;;;0.30;;
64674;SDS011;51090;51.512;11.332;2023-04-24T16:09:42;0.85;;;0.28;;
64674;SDS011;51090;51.512;11.332;2023-04-24T16:12:08;1.65;;;0.30;;
64674;SDS011;51090;51.512;11.332;2023-04-24T16:14:34;0.30;;;0.30;;
64674;SDS011;51090;51.512;11.332;2023-04-24T16:17:03;0.50;;;0.50;;
64674;SDS011;51090;51.512;11.332;2023-04-24T16:19:29;0.30;;;0.30;;
64674;SDS011;51090;51.512;11.332;2023-04-24T16:21:55;2.03;;;0.57;;
64674;SDS011;51090;51.512;11.332;2023-04-24T16:24:22;2.47;;;0.50;;
64674;SDS011;51090;51.512;11.332;2023-04-24T16:26:48;0.88;;;0.50;;
64674;SDS011;51090;51.512;11.332;2023-04-24T16:29:15;1.25;;;0.47;;
64674;SDS011;51090;51.512;11.332;2023-04-24T16:31:41;1.20;;;0.77;;
64674;SDS011;51090;51.512;11.332;2023-04-24T16:34:07;1.35;;;0.88;;
64674;SDS011;51090;51.512;11.332;2023-04-24T16:36:36;2.50;;;0.75;;
64674;SDS011;51090;51.512;11.332;2023-04-24T16:39:02;2.78;;;1.25;;
64674;SDS011;51090;51.512;11.332;2023-04-24T16:41:29;2.47;;;1.27;;
64674;SDS011;51090;51.512;11.332;2023-04-24T16:43:56;4.20;;;1.40;;
64674;SDS011;51090;51.512;11.332;2023-04-24T16:46:22;3.17;;;1.48;;
64674;SDS011;51090;51.512;11.332;2023-04-24T16:48:48;5.53;;;1.30;;
64674;SDS011;51090;51.512;11.332;2023-04-24T16:51:14;3.65;;;1.52;;
64674;SDS011;51090;51.512;11.332;2023-04-24T16:53:40;3.90;;;1.90;;
64674;SDS011;51090;51.512;11.332;2023-04-24T16:56:05;2.22;;;1.45;;
64674;SDS011;51090;51.512;11.332;2023-04-24T16:58:31;4.13;;;1.58;;
64674;SDS011;51090;51.512;11.332;2023-04-24T17:00:57;3.63;;;1.45;;
64674;SDS011;51090;51.512;11.332;2023-04-24T17:03:23;2.35;;;1.25;;
64674;SDS011;51090;51.512;11.332;2023-04-24T17:05:49;3.35;;;1.85;;
64674;SDS011;51090;51.512;11.332;2023-04-24T17:08:15;4.80;;;1.90;;
64674;SDS011;51090;51.512;11.332;2023-04-24T17:10:40;4.57;;;2.10;;
64674;SDS011;51090;51.512;11.332;2023-04-24T17:13:06;5.57;;;2.22;;
64674;SDS011;51090;51.512;11.332;2023-04-24T17:15:33;5.38;;;2.08;;
64674;SDS011;51090;51.512;11.332;2023-04-24T17:17:59;6.43;;;2.13;;
64674;SDS011;51090;51.512;11.332;2023-04-24T17:20:26;3.38;;;2.03;;
64674;SDS011;51090;51.512;11.332;2023-04-24T17:22:52;6.70;;;2.80;;
64674;SDS011;51090;51.512;11.332;2023-04-24T17:25:18;5.18;;;2.30;;
64674;SDS011;51090;51.512;11.332;2023-04-24T17:27:45;6.20;;;3.00;;
64674;SDS011;51090;51.512;11.332;2023-04-24T17:30:11;6.00;;;2.90;;
64674;SDS011;51090;51.512;11.332;2023-04-24T17:32:38;5.72;;;2.60;;
64674;SDS011;51090;51.512;11.332;2023-04-24T17:35:04;6.63;;;2.65;;
64674;SDS011;51090;51.512;11.332;2023-04-24T17:37:31;6.05;;;3.30;;
64674;SDS011;51090;51.512;11.332;2023-04-24T17:39:57;6.25;;;3.15;;
64674;SDS011;51090;51.512;11.332;2023-04-24T17:42:23;7.53;;;3.22;;
64674;SDS011;51090;51.512;11.332;2023-04-24T17:44:49;9.10;;;3.30;;
64674;SDS011;51090;51.512;11.332;2023-04-24T17:47:15;4.63;;;2.50;;
64674;SDS011;51090;51.512;11.332;2023-04-24T17:49:40;5.30;;;2.65;;
64674;SDS011;51090;51.512;11.332;2023-04-24T17:52:07;6.15;;;2.78;;
64674;SDS011;51090;51.512;11.332;2023-04-24T17:54:33;5.60;;;2.70;;
64674;SDS011;51090;51.512;11.332;2023-04-24T17:56:59;4.65;;;2.72;;
64674;SDS011;51090;51.512;11.332;2023-04-24T17:59:25;6.00;;;2.60;;
64674;SDS011;51090;51.512;11.332;2023-04-24T18:01:51;5.53;;;2.70;;
64674;SDS011;51090;51.512;11.332;2023-04-24T18:04:17;7.05;;;2.70;;
64674;SDS011;51090;51.512;11.332;2023-04-24T18:06:43;5.05;;;2.70;;
64674;SDS011;51090;51.512;11.332;2023-04-24T18:09:08;5.30;;;2.88;;
64674;SDS011;51090;51.512;11.332;2023-04-24T18:11:34;5.30;;;2.58;;
64674;SDS011;51090;51.512;11.332;2023-04-24T18:14:00;4.88;;;2.40;;
64674;SDS011;51090;51.512;11.332;2023-04-24T18:16:25;5.35;;;2.20;;
64674;SDS011;51090;51.512;11.332;2023-04-24T18:18:51;5.70;;;2.50;;
64674;SDS011;51090;51.512;11.332;2023-04-24T18:21:17;6.03;;;3.03;;
64674;SDS011;51090;51.512;11.332;2023-04-24T18:23:44;5.22;;;2.47;;
64674;SDS011;51090;51.512;11.332;2023-04-24T18:26:10;5.90;;;3.10;;
64674;SDS011;51090;51.512;11.332;2023-04-24T18:28:41;4.38;;;2.30;;
64674;SDS011;51090;51.512;11.332;2023-04-24T18:31:07;4.63;;;2.35;;
64674;SDS011;51090;51.512;11.332;2023-04-24T18:33:33;4.35;;;2.63;;
64674;SDS011;51090;51.512;11.332;2023-04-24T18:36:00;3.38;;;2.15;;
64674;SDS011;51090;51.512;11.332;2023-04-24T18:38:27;4.63;;;2.45;;
64674;SDS011;51090;51.512;11.332;2023-04-24T18:40:53;4.80;;;2.83;;
64674;SDS011;51090;51.512;11.332;2023-04-24T18:43:19;5.25;;;2.45;;
64674;SDS011;51090;51.512;11.332;2023-04-24T18:45:46;15.20;;;7.00;;